Latest Weather Observations for Moree

IDN60801

Issued at 6:32 pm EST Saturday 25 April 2015 (issued every 30 minutes, with the page automatically refreshed every 10 minutes)

About weather observations | Map of weather stations | Latest weather observations for NSW | Other Formats
Station Details ID: 053115 Name: MOREE AERO Lat: -29.49 Lon: 149.85 Height: 213.0 m
Data from the previous 72 hours. | See also: Recent months at Moree
Date/Time
EST
Temp
°C
App
Temp
°C
Dew
Point
Rel
Hum
%
Delta-T
°C
Wind Press
QNH
hPa
Press
MSL
hPa
Rain
since 9 am
mm
Dir
 
Spd
km/h
Gust
km/h
Spd
kts
Gust
kts
25/06:00pm 21.2 15.1 3.0 30 8.7 WNW 24 28 13 15 1009.2 1008.5 0.0
25/05:30pm 22.3 15.5 2.9 28 9.3 WNW 28 33 15 18 1008.6 1007.9 0.0
25/05:00pm 23.5 17.1 3.4 27 9.9 NW 26 37 14 20 1008.4 1007.7 0.0
25/04:30pm 24.2 16.8 4.0 27 10.1 NW 32 39 17 21 1008.2 1007.5 0.0
25/04:00pm 24.7 17.6 3.4 25 10.5 WNW 30 39 16 21 1008.1 1007.4 0.0
25/03:30pm 25.0 17.6 4.2 26 10.4 NW 32 43 17 23 1008.0 1007.3 0.0
25/03:00pm 25.4 17.9 3.4 24 10.9 NW 32 43 17 23 1008.2 1007.5 0.0
25/02:32pm 25.8 18.8 4.3 25 10.9 WNW 30 48 16 26 1008.2 1007.5 0.0
25/02:30pm 25.4 18.3 3.4 24 10.9 NW 30 41 16 22 1008.2 1007.5 0.0
25/02:00pm 26.0 18.7 4.5 25 11.0 NW 32 41 17 22 1008.3 1007.6 0.0
25/01:30pm 25.7 19.0 3.6 24 11.0 NW 28 41 15 22 1008.5 1007.8 0.0
25/01:00pm 25.2 18.5 3.8 25 10.7 WNW 28 39 15 21 1008.8 1008.1 0.0
25/12:30pm 24.9 18.3 4.1 26 10.4 WNW 28 39 15 21 1009.2 1008.5 0.0
25/12:00pm 24.8 18.5 4.0 26 10.4 NNW 26 35 14 19 1009.7 1009.0 0.0
25/11:30am 24.8 19.2 5.6 29 9.9 NW 24 35 13 19 1010.1 1009.4 0.0
25/11:00am 24.2 19.5 6.0 31 9.4 NW 20 30 11 16 1010.4 1009.7 0.0
25/10:30am 23.3 19.7 6.6 34 8.7 NNW 15 19 8 10 1010.8 1010.1 0.0
25/10:00am 21.8 18.3 7.2 39 7.6 N 15 20 8 11 1010.8 1010.1 0.0
25/09:30am 21.1 18.1 9.4 47 6.3 N 15 19 8 10 1011.1 1010.4 0.0
25/09:00am 19.0 16.3 8.9 52 5.3 NNE 13 15 7 8 1011.2 1010.5 0.0
25/08:30am 17.3 14.5 8.4 56 4.6 N 13 15 7 8 1011.2 1010.5 0.0
25/08:00am 15.6 13.4 9.3 66 3.3 NNE 11 13 6 7 1011.1 1010.4 0.0
25/07:30am 14.1 11.8 9.1 72 2.6 NE 11 13 6 7 1011.0 1010.3 0.0
25/07:00am 12.6 9.8 8.7 77 2.0 NE 13 13 7 7 1010.6 1009.9 0.0
25/06:30am 11.1 7.8 8.1 82 1.5 NE 15 15 8 8 1010.2 1009.5 0.0
25/06:00am 11.3 8.4 8.3 82 1.5 NE 13 13 7 7 1010.2 1009.5 0.0
25/05:30am 10.7 7.8 8.3 85 1.2 ENE 13 15 7 8 1010.0 1009.3 0.0
25/05:00am 10.9 8.4 8.1 83 1.4 ENE 11 11 6 6 1010.0 1009.3 0.0
25/04:30am 11.3 8.5 8.5 83 1.4 NE 13 15 7 8 1009.9 1009.2 0.0
25/04:00am 11.5 9.4 8.4 81 1.5 ENE 9 11 5 6 1009.7 1009.0 0.0
25/03:30am 11.9 9.4 8.0 77 1.9 ENE 11 13 6 7 1009.7 1009.0 0.0
25/03:00am 12.2 9.7 8.1 76 2.0 E 11 15 6 8 1009.9 1009.2 0.0
25/02:30am 12.3 10.2 8.2 76 2.0 ESE 9 13 5 7 1010.1 1009.4 0.0
25/02:00am 11.8 9.6 7.7 76 2.0 ESE 9 15 5 8 1010.0 1009.3 0.0
25/01:30am 12.4 10.3 8.1 75 2.1 NE 9 9 5 5 1010.2 1009.5 0.0
25/01:00am 12.6 10.4 7.9 73 2.3 NE 9 9 5 5 1010.5 1009.8 0.0
25/12:30am 13.0 11.1 7.7 70 2.6 NE 7 7 4 4 1010.6 1009.9 0.0
25/12:00am 13.1 11.5 8.0 71 2.6 NE 6 7 3 4 1010.7 1010.0 0.0
 
Date/Time
EST
Temp
°C
App
Temp
°C
Dew
Point
Rel
Hum
%
Delta-T
°C
Wind Press
QNH
hPa
Press
MSL
hPa
Rain
since 9 am
mm
Dir
 
Spd
km/h
Gust
km/h
Spd
kts
Gust
kts
24/11:30pm 13.8 12.1 8.4 70 2.7 ENE 7 7 4 4 1010.6 1009.9 0.0
24/11:00pm 14.1 12.6 9.1 72 2.6 N 7 9 4 5 1010.5 1009.8 0.0
24/10:30pm 14.9 13.4 8.6 66 3.2 NW 6 7 3 4 1010.5 1009.8 0.0
24/10:00pm 15.9 14.3 7.9 59 4.1 NW 6 7 3 4 1010.5 1009.8 0.0
24/09:30pm 16.9 14.7 6.4 50 5.2 NW 7 7 4 4 1010.5 1009.8 0.0
24/09:00pm 17.2 15.1 6.7 50 5.3 WNW 7 7 4 4 1010.5 1009.8 0.0
24/08:30pm 17.8 15.7 6.7 48 5.6 WNW 7 7 4 4 1010.4 1009.7 0.0
24/08:00pm 18.5 16.4 6.0 44 6.2 WNW 6 7 3 4 1010.2 1009.5 0.0
24/07:30pm 18.6 15.9 5.8 43 6.3 NW 9 9 5 5 1010.1 1009.4 0.0
24/07:00pm 19.8 17.1 5.5 39 7.1 W 9 11 5 6 1010.0 1009.3 0.0
24/06:30pm 20.5 17.6 4.9 36 7.7 W 9 11 5 6 1009.6 1008.9 0.0
24/06:00pm 21.4 17.8 4.9 34 8.2 W 13 15 7 8 1009.2 1008.5 0.0
24/05:30pm 22.8 19.3 5.3 32 8.8 W 13 17 7 9 1009.0 1008.3 0.0
24/05:00pm 24.5 19.5 4.8 28 10.0 W 20 28 11 15 1008.7 1008.0 0.0
24/04:30pm 25.2 19.9 4.9 27 10.3 WNW 22 28 12 15 1008.6 1007.9 0.0
24/04:00pm 25.7 20.5 5.3 27 10.5 W 22 30 12 16 1008.4 1007.7 0.0
24/03:30pm 26.0 21.0 6.6 29 10.2 W 22 32 12 17 1008.4 1007.7 0.0
24/03:00pm 26.1 20.6 5.7 27 10.6 W 24 33 13 18 1008.4 1007.7 0.0
24/02:30pm 26.3 20.9 6.3 28 10.5 WNW 24 37 13 20 1008.6 1007.9 0.0
24/02:00pm 26.2 20.5 6.8 29 10.3 W 26 33 14 18 1008.6 1007.9 0.0
24/01:30pm 25.9 21.4 7.0 30 10.0 WNW 20 32 11 17 1008.9 1008.2 0.0
24/01:00pm 25.7 21.2 8.7 34 9.3 NW 22 37 12 20 1009.3 1008.6 0.0
24/12:30pm 25.7 22.1 9.9 37 8.8 NW 19 30 10 16 1009.8 1009.1 0.0
24/12:00pm 24.4 20.7 10.3 41 7.9 WNW 20 30 11 16 1010.3 1009.6 0.0
24/11:30am 24.4 22.1 11.7 45 7.3 NW 15 26 8 14 1010.8 1010.1 0.0
24/11:00am 23.4 22.0 12.1 49 6.5 NNW 11 17 6 9 1011.3 1010.6 0.0
24/10:30am 22.9 21.7 12.8 53 5.8 NNW 11 15 6 8 1011.5 1010.8 0.0
24/10:00am 21.9 20.8 13.0 57 5.1 WNW 11 17 6 9 1012.0 1011.3 0.0
24/09:30am 20.5 20.2 13.2 63 4.2 N 7 11 4 6 1011.7 1011.0 0.0
24/09:00am 18.9 17.9 13.3 70 3.2 NNE 11 13 6 7 1011.6 1010.9 0.0
24/08:30am 18.6 17.8 12.8 69 3.3 NE 9 13 5 7 1011.9 1011.2 0.0
24/08:00am 17.9 18.9 14.2 79 2.1 NE 2 7 1 4 1011.9 1011.2 0.0
24/07:30am 15.7 15.5 13.5 87 1.2 E 7 9 4 5 1011.5 1010.8 0.0
24/07:00am 14.3 13.4 12.7 90 0.9 SSE 9 11 5 6 1011.1 1010.4 0.0
24/06:30am 14.9 14.6 12.8 87 1.2 ESE 6 7 3 4 1010.7 1010.0 0.0
24/06:00am 15.1 15.9 12.6 85 1.4 CALM 0 0 0 0 1010.4 1009.7 0.0
24/05:30am 15.4 14.6 12.9 85 1.4 NNE 9 11 5 6 1010.1 1009.4 0.0
24/05:00am 14.9 15.7 12.6 86 1.3 CALM 0 0 0 0 1010.0 1009.3 0.0
24/04:30am 15.4 15.1 12.7 84 1.5 NE 6 9 3 5 1010.2 1009.5 0.0
24/04:00am 15.4 14.6 12.9 85 1.4 NE 9 11 5 6 1010.1 1009.4 0.0
24/03:30am 15.1 15.9 12.6 85 1.4 CALM 0 0 0 0 1010.0 1009.3 0.0
24/03:00am 15.4 16.3 12.9 85 1.4 CALM 0 0 0 0 1010.1 1009.4 0.0
24/02:30am 15.6 16.5 12.9 84 1.5 CALM 0 0 0 0 1010.3 1009.6 0.0
24/02:00am 16.0 17.0 13.3 84 1.5 CALM 0 0 0 0 1010.7 1010.0 0.0
24/01:30am 15.8 16.8 13.1 84 1.5 CALM 0 0 0 0 1010.8 1010.1 0.0
24/01:00am 15.8 16.7 12.9 83 1.6 CALM 0 0 0 0 1011.1 1010.4 0.0
24/12:30am 16.6 17.4 12.4 76 2.3 CALM 0 0 0 0 1011.3 1010.6 0.0
24/12:00am 16.7 17.5 12.5 76 2.3 CALM 0 0 0 0 1011.4 1010.7 0.0
 
Date/Time
EST
Temp
°C
App
Temp
°C
Dew
Point
Rel
Hum
%
Delta-T
°C
Wind Press
QNH
hPa
Press
MSL
hPa
Rain
since 9 am
mm
Dir
 
Spd
km/h
Gust
km/h
Spd
kts
Gust
kts
23/11:30pm 16.7 17.5 12.7 77 2.2 CALM 0 0 0 0 1011.4 1010.7 0.0
23/11:00pm 16.7 17.4 12.3 75 2.4 CALM 0 0 0 0 1011.6 1010.9 0.0
23/10:30pm 16.9 17.7 12.6 76 2.4 CALM 0 0 0 0 1011.7 1011.0 0.0
23/10:00pm 17.2 18.0 12.5 74 2.6 CALM 0 0 0 0 1011.9 1011.2 0.0
23/09:30pm 17.3 18.1 12.6 74 2.6 CALM 0 0 0 0 1011.9 1011.2 0.0
23/09:00pm 17.5 18.1 12.0 70 3.1 CALM 0 0 0 0 1012.0 1011.3 0.0
23/08:30pm 17.7 18.2 11.7 68 3.3 CALM 0 0 0 0 1012.0 1011.3 0.0
23/08:00pm 18.8 19.4 11.9 64 3.9 CALM 0 0 0 0 1011.9 1011.2 0.0
23/07:30pm 19.0 19.7 12.3 65 3.8 CALM 0 0 0 0 1012.0 1011.3 0.0
23/07:00pm 19.2 19.7 11.7 62 4.2 CALM 0 0 0 0 1011.6 1010.9 0.0
23/06:30pm 19.9 19.7 11.7 59 4.6 W 4 7 2 4 1011.3 1010.6 0.0
23/06:00pm 20.6 19.7 11.5 56 5.1 SW 7 9 4 5 1011.0 1010.3 0.0
23/05:30pm 21.9 20.9 11.0 50 6.1 SW 7 11 4 6 1010.6 1009.9 0.0
23/05:00pm 23.1 21.8 11.2 47 6.7 SW 9 13 5 7 1010.4 1009.7 0.0
23/04:30pm 23.3 20.4 11.0 46 6.9 SSW 17 20 9 11 1010.2 1009.5 0.0
23/04:00pm 23.6 21.8 12.0 48 6.6 SSW 13 19 7 10 1010.4 1009.7 0.0
23/03:30pm 23.3 20.5 11.4 47 6.7 SSW 17 22 9 12 1010.5 1009.8 0.0
23/03:00pm 23.4 21.0 11.5 47 6.8 SSW 15 22 8 12 1010.6 1009.9 0.0
23/02:30pm 23.4 20.6 11.5 47 6.7 SW 17 26 9 14 1010.6 1009.9 0.0
23/02:00pm 23.3 21.0 11.7 48 6.6 SW 15 24 8 13 1010.9 1010.2 0.0
23/01:30pm 22.8 20.0 11.2 48 6.5 SW 17 26 9 14 1011.2 1010.5 0.0
23/01:00pm 22.4 19.8 12.1 52 5.9 WSW 17 28 9 15 1011.6 1010.9 0.0
23/12:30pm 22.0 19.8 12.0 53 5.7 WSW 15 26 8 14 1012.3 1011.6 0.0
23/12:00pm 21.1 19.4 11.2 53 5.5 W 11 24 6 13 1012.9 1012.2 0.0
23/11:30am 20.1 17.8 10.5 54 5.3 SW 13 20 7 11 1013.6 - -
23/11:00am 19.5 17.7 11.0 58 4.7 SW 11 17 6 9 1014.0 1013.3 -
23/10:30am 19.0 18.0 10.3 57 4.7 SSW 6 13 3 7 1014.3 - -
23/10:00am 18.0 17.2 11.1 64 3.8 SW 6 11 3 6 1014.7 1014.0 0.0
23/09:30am 16.9 16.2 11.4 70 3.0 WSW 6 9 3 5 1014.7 1014.0 0.0
23/09:00am 15.7 14.7 11.1 74 2.5 SSW 7 11 4 6 1014.6 1013.9 0.2
23/08:30am 14.7 13.4 10.1 74 2.4 SW 7 9 4 5 1014.7 1014.0 0.2
23/08:00am 13.4 12.1 10.0 80 1.8 WNW 7 9 4 5 1014.7 1014.0 0.2
23/07:30am 12.1 10.4 9.7 85 1.2 WNW 9 9 5 5 1014.5 1013.8 0.2
23/07:00am 10.2 10.0 9.1 93 0.6 CALM 0 0 0 0 1014.2 1013.5 0.2
23/06:30am 9.5 7.9 8.6 94 0.4 NW 7 7 4 4 1014.1 1013.4 0.2
23/06:00am 9.6 8.0 8.7 94 0.4 NW 7 9 4 5 1013.9 1013.2 0.2
23/05:30am 9.9 9.7 9.0 94 0.4 CALM 0 0 0 0 1013.7 1013.0 0.2
23/05:00am 10.0 9.8 9.1 94 0.5 CALM 0 0 0 0 1013.4 1012.7 0.2
23/04:30am 10.4 10.3 9.5 94 0.5 CALM 0 0 0 0 1013.2 1012.5 0.2
23/04:00am 10.7 10.6 9.5 92 0.6 CALM 0 0 0 0 1013.1 1012.4 0.2
23/03:30am 10.8 10.7 9.4 91 0.7 CALM 0 0 0 0 1013.2 1012.5 0.2
23/03:00am 11.4 10.1 9.8 90 0.8 WSW 7 7 4 4 1012.8 1012.1 0.2
23/02:30am 11.7 10.0 9.8 88 1.0 WSW 9 11 5 6 1013.2 1012.5 0.2
23/02:00am 12.1 10.5 10.2 88 1.0 W 9 11 5 6 1013.5 1012.8 0.2
23/01:30am 12.2 10.6 10.1 87 1.1 W 9 11 5 6 1013.7 1013.0 0.2
23/01:00am 12.9 10.6 10.3 84 1.4 W 13 15 7 8 1013.9 1013.2 0.2
23/12:30am 12.7 10.7 10.2 85 1.3 NW 11 13 6 7 1013.9 1013.2 0.2
23/12:00am 13.1 11.6 10.5 84 1.4 W 9 11 5 6 1014.1 1013.4 0.2
 
Date/Time
EST
Temp
°C
App
Temp
°C
Dew
Point
Rel
Hum
%
Delta-T
°C
Wind Press
QNH
hPa
Press
MSL
hPa
Rain
since 9 am
mm
Dir
 
Spd
km/h
Gust
km/h
Spd
kts
Gust
kts
22/11:30pm 13.4 11.9 10.6 83 1.5 WSW 9 13 5 7 1014.5 1013.8 0.2
22/11:00pm 13.9 12.1 10.9 82 1.6 W 11 11 6 6 1014.7 1014.0 0.2
22/10:30pm 14.1 12.3 10.7 80 1.8 W 11 13 6 7 1014.9 1014.2 0.2
22/10:00pm 14.5 12.3 10.9 79 1.9 WSW 13 15 7 8 1015.0 1014.3 0.2
22/09:30pm 14.9 12.4 11.1 78 2.0 WSW 15 15 8 8 1015.0 1014.3 0.2
22/09:00pm 15.6 14.3 11.2 75 2.4 W 9 9 5 5 1015.0 1014.3 0.2
22/08:30pm 15.9 14.6 11.1 73 2.6 W 9 9 5 5 1015.0 1014.3 0.2
22/08:00pm 16.1 14.8 11.1 72 2.7 W 9 11 5 6 1014.8 1014.1 0.2
22/07:30pm 15.2 14.0 11.6 79 2.0 NW 9 11 5 6 1014.8 1014.1 0.2
22/07:00pm 15.5 15.9 11.3 76 2.3 CALM 0 0 0 0 1014.5 1013.8 0.2

Other Formats:

Comma delimited format used in spreadsheet applications
http://www.bom.gov.au/fwo/IDN60801/IDN60801.95527.axf

JavaScript Object Notation format (JSON) in row-major order
http://www.bom.gov.au/fwo/IDN60801/IDN60801.95527.json